Time;durP1;ratioP1;P1;durP2;ratioP2;P2;SDS_P1;SDS_P2;PMS_P1;PMS_P2;Temp;Humidity;BMP_temperature;BMP_pressure;BME280_temperature;BME280_humidity;BME280_pressure;Samples;Min_cycle;Max_cycle;Signal;HPM_P1;HPM_P2
2023/01/04 00:00:35;;;;;;;0.63;0.13;;;20.20;51.50;;;;;;5046343;28;20072;-52
2023/01/04 00:03:02;;;;;;;0.75;0.10;;;20.20;51.50;;;;;;5046332;28;20048;-50
2023/01/04 00:05:31;;;;;;;1.85;0.10;;;20.20;51.60;;;;;;5045900;28;20051;-54
2023/01/04 00:07:59;;;;;;;1.25;0.00;;;20.20;51.60;;;;;;5045275;28;20134;-54
2023/01/04 00:10:26;;;;;;;1.50;0.08;;;20.20;51.70;;;;;;5046076;28;20037;-53
2023/01/04 00:12:53;;;;;;;5.50;0.20;;;20.20;51.70;;;;;;5046026;28;20330;-51
2023/01/04 00:15:20;;;;;;;0.25;0.10;;;20.20;51.90;;;;;;5046221;28;20051;-53
2023/01/04 00:17:47;;;;;;;1.60;0.30;;;20.20;51.90;;;;;;5045883;28;20065;-54
2023/01/04 00:20:16;;;;;;;0.10;0.00;;;20.10;51.90;;;;;;5045859;28;20147;-50
2023/01/04 00:22:44;;;;;;;3.65;0.20;;;20.20;52.00;;;;;;5043940;28;20068;-52
2023/01/04 00:25:11;;;;;;;2.38;0.10;;;20.20;52.00;;;;;;5045660;28;20067;-51
2023/01/04 00:27:38;;;;;;;0.68;0.10;;;20.10;52.00;;;;;;5045778;28;20128;-49
2023/01/04 00:30:06;;;;;;;0.68;0.05;;;20.10;52.00;;;;;;5046005;28;20053;-50
2023/01/04 00:32:33;;;;;;;0.47;0.00;;;20.10;52.10;;;;;;5045676;28;20060;-53
2023/01/04 00:35:00;;;;;;;1.15;0.00;;;20.10;52.10;;;;;;5045993;28;20086;-51
2023/01/04 00:37:27;;;;;;;5.25;0.10;;;20.10;52.10;;;;;;5044826;28;20469;-50
2023/01/04 00:39:56;;;;;;;0.90;0.20;;;20.10;52.10;;;;;;5045071;28;20037;-51
2023/01/04 00:42:23;;;;;;;1.20;0.00;;;20.10;52.10;;;;;;5045401;28;20083;-51
2023/01/04 00:44:50;;;;;;;2.83;0.17;;;20.10;52.10;;;;;;5045171;28;20037;-51
2023/01/04 00:47:17;;;;;;;4.57;0.10;;;20.10;52.10;;;;;;5045067;28;20412;-49
2023/01/04 00:49:44;;;;;;;1.80;0.10;;;20.10;52.10;;;;;;5045378;28;20052;-50
2023/01/04 00:52:11;;;;;;;2.35;0.10;;;20.10;52.20;;;;;;5045162;28;20055;-54
2023/01/04 00:54:38;;;;;;;0.75;0.13;;;20.10;52.20;;;;;;5043752;28;20120;-51
2023/01/04 00:57:07;;;;;;;0.32;0.10;;;20.10;52.30;;;;;;5044486;28;20131;-48
2023/01/04 00:59:34;;;;;;;1.77;0.10;;;20.10;52.20;;;;;;5045444;28;20502;-50
2023/01/04 01:02:02;;;;;;;0.30;0.10;;;20.10;52.20;;;;;;5045203;28;20677;-52
2023/01/04 01:04:29;;;;;;;2.97;0.20;;;20.10;52.20;;;;;;5044664;28;20040;-51
2023/01/04 01:06:56;;;;;;;1.83;0.10;;;20.10;52.20;;;;;;5044649;28;20071;-48
2023/01/04 01:09:23;;;;;;;1.35;0.10;;;20.10;52.20;;;;;;5044851;28;20036;-53
2023/01/04 01:11:51;;;;;;;0.75;0.10;;;20.10;52.20;;;;;;5045069;28;20056;-48
2023/01/04 01:14:21;;;;;;;0.60;0.10;;;20.10;52.20;;;;;;5045023;28;20124;-53
2023/01/04 01:16:48;;;;;;;1.38;0.00;;;20.10;52.20;;;;;;5045129;28;20073;-49
2023/01/04 01:19:16;;;;;;;1.30;0.10;;;20.10;52.20;;;;;;5044764;28;20041;-54
2023/01/04 01:21:43;;;;;;;1.95;0.10;;;20.00;52.10;;;;;;5044795;28;20048;-54
2023/01/04 01:24:15;;;;;;;0.63;0.43;;;20.10;52.20;;;;;;5044886;28;20047;-54
2023/01/04 01:26:42;;;;;;;0.73;0.10;;;20.00;52.10;;;;;;5043388;28;20049;-55
2023/01/04 01:29:09;;;;;;;0.43;0.40;;;20.10;52.10;;;;;;5045156;28;20037;-52
2023/01/04 01:31:38;;;;;;;0.52;0.10;;;20.10;52.20;;;;;;5044834;28;20114;-53
2023/01/04 01:34:05;;;;;;;1.02;0.20;;;20.00;52.10;;;;;;5044498;28;20044;-52
2023/01/04 01:36:32;;;;;;;1.98;0.05;;;20.00;52.10;;;;;;5044766;28;20051;-49
2023/01/04 01:38:59;;;;;;;0.82;0.10;;;20.10;52.20;;;;;;5044477;28;20859;-49
2023/01/04 01:41:28;;;;;;;2.00;0.00;;;20.10;52.10;;;;;;5044658;28;20100;-52
2023/01/04 01:43:57;;;;;;;0.20;0.05;;;20.10;52.10;;;;;;5044673;28;20045;-52
2023/01/04 01:46:28;;;;;;;2.53;0.47;;;20.10;52.10;;;;;;5044564;28;20132;-50
2023/01/04 01:49:02;;;;;;;0.77;0.10;;;20.10;52.10;;;;;;5044246;28;20081;-48
2023/01/04 01:51:31;;;;;;;2.00;0.90;;;20.10;52.10;;;;;;5048342;28;20095;-51
2023/01/04 01:54:03;;;;;;;0.65;0.10;;;20.10;52.10;;;;;;5048456;28;20503;-49
2023/01/04 01:56:33;;;;;;;1.27;0.00;;;20.10;52.20;;;;;;5048601;28;20079;-50
2023/01/04 01:59:01;;;;;;;3.55;0.10;;;20.00;52.10;;;;;;5047961;28;20518;-50
2023/01/04 02:01:28;;;;;;;4.15;0.40;;;20.10;52.20;;;;;;5048554;28;20047;-52
2023/01/04 02:03:57;;;;;;;0.52;0.08;;;20.10;52.30;;;;;;5047860;28;20051;-54
2023/01/04 02:06:31;;;;;;;1.50;0.10;;;20.10;52.30;;;;;;5048141;28;20412;-53
2023/01/04 02:08:59;;;;;;;1.08;0.17;;;20.10;52.40;;;;;;5048507;28;20053;-52
2023/01/04 02:11:27;;;;;;;1.08;0.03;;;20.00;52.30;;;;;;5028285;28;20045;-51
2023/01/04 02:16:58;;;;;;;0.30;0.10;;;20.00;52.30;;;;;;5047825;28;20098;-53
2023/01/04 02:19:56;;;;;;;3.83;0.10;;;20.10;52.90;;;;;;5028249;28;20047;-51
2023/01/04 02:22:59;;;;;;;1.65;0.55;;;20.00;52.30;;;;;;5028460;28;20107;-51
2023/01/04 02:25:57;;;;;;;2.45;0.30;;;20.10;52.30;;;;;;5028518;28;20052;-51
2023/01/04 02:28:43;;;;;;;0.90;0.10;;;20.10;52.30;;;;;;5028602;28;20044;-55
2023/01/04 02:31:28;;;;;;;0.75;0.10;;;20.00;52.30;;;;;;5027818;28;20119;-46
2023/01/04 02:34:03;;;;;;;1.65;0.03;;;20.10;52.30;;;;;;5037744;28;20045;-48
2023/01/04 02:36:36;;;;;;;1.77;0.20;;;20.00;52.30;;;;;;5047662;28;20608;-50
2023/01/04 02:39:17;;;;;;;0.90;0.10;;;20.00;52.40;;;;;;5047595;28;20519;-51
2023/01/04 02:41:50;;;;;;;0.95;0.10;;;20.10;52.30;;;;;;5047628;28;20091;-50
2023/01/04 02:47:10;;;;;;;0.10;0.10;;;20.00;52.30;;;;;;5047528;28;20090;-50
2023/01/04 02:52:24;;;;;;;1.25;0.10;;;20.00;52.30;;;;;;5047106;28;20080;-52
2023/01/04 02:54:53;;;;;;;0.77;0.10;;;20.00;52.20;;;;;;5046946;28;20052;-53
2023/01/04 02:57:43;;;;;;;0.15;0.00;;;20.00;52.30;;;;;;5061582;28;20501;-51
2023/01/04 03:00:33;;;;;;;2.75;0.20;;;20.10;52.30;;;;;;5046919;28;20114;-46
2023/01/04 03:06:16;;;;;;;0.52;0.15;;;20.00;52.30;;;;;;5047084;28;20606;-52
2023/01/04 03:08:54;;;;;;;3.60;0.10;;;20.00;52.30;;;;;;5047231;28;20060;-52
2023/01/04 03:14:12;;;;;;;1.83;0.03;;;20.00;52.40;;;;;;5047090;28;20174;-49
2023/01/04 03:16:40;;;;;;;0.60;0.15;;;20.00;52.40;;;;;;5046628;28;20458;-51
2023/01/04 03:19:12;;;;;;;0.88;0.10;;;20.00;52.40;;;;;;5046733;28;20047;-50
2023/01/04 03:21:43;;;;;;;2.13;0.17;;;20.00;52.40;;;;;;5046466;28;20059;-51
2023/01/04 03:35:43;;;;;;;1.85;0.43;;;20.00;52.40;;;;;;5046792;28;20203;-48
2023/01/04 03:49:30;;;;;;;2.15;0.10;;;20.00;52.50;;;;;;5023779;28;20055;-49
2023/01/04 03:52:03;;;;;;;1.65;1.00;;;20.00;52.50;;;;;;5006938;28;20741;-48
2023/01/04 03:54:35;;;;;;;0.88;0.00;;;20.00;52.50;;;;;;5038347;28;20052;-50
2023/01/04 03:57:03;;;;;;;1.98;0.10;;;20.00;52.50;;;;;;5042608;28;20820;-52
2023/01/04 03:59:32;;;;;;;0.38;0.35;;;20.00;52.50;;;;;;5042799;28;20831;-49
2023/01/04 04:02:01;;;;;;;1.17;0.50;;;20.00;52.50;;;;;;5026564;28;20080;-53
2023/01/04 04:09:59;;;;;;;0.10;0.00;;;20.10;52.60;;;;;;5042989;28;20053;-49
2023/01/04 04:12:25;;;;;;;0.10;0.00;;;20.00;52.50;;;;;;5048097;28;20071;-52
2023/01/04 04:14:53;;;;;;;0.00;0.00;;;20.00;52.50;;;;;;5062523;28;20504;-49
2023/01/04 04:17:20;;;;;;;1.25;0.05;;;20.00;52.50;;;;;;5057772;28;20133;-51
2023/01/04 04:19:47;;;;;;;0.38;0.10;;;20.00;52.60;;;;;;5045928;28;20135;-53
2023/01/04 04:22:15;;;;;;;1.73;0.00;;;20.00;52.70;;;;;;5045584;28;20068;-51
2023/01/04 04:24:42;;;;;;;0.73;0.00;;;20.00;52.70;;;;;;5044052;28;20037;-52
2023/01/04 04:27:09;;;;;;;0.00;0.00;;;20.00;52.70;;;;;;5045700;28;20420;-51
2023/01/04 04:29:36;;;;;;;2.67;0.22;;;20.00;52.70;;;;;;5045393;28;20041;-51
2023/01/04 04:32:04;;;;;;;0.25;0.05;;;20.00;52.80;;;;;;5044240;28;20048;-53
2023/01/04 04:34:31;;;;;;;4.47;0.10;;;20.10;52.80;;;;;;5045641;28;20055;-52
2023/01/04 04:36:58;;;;;;;1.10;0.10;;;20.10;52.90;;;;;;5043981;28;20045;-51
2023/01/04 04:39:26;;;;;;;0.10;0.05;;;20.10;53.00;;;;;;5045253;28;20044;-52
2023/01/04 04:41:52;;;;;;;1.95;0.40;;;20.00;53.00;;;;;;5045379;28;20040;-54
2023/01/04 04:44:20;;;;;;;2.22;0.20;;;20.10;53.10;;;;;;5045338;28;20048;-51
2023/01/04 04:46:49;;;;;;;3.50;0.10;;;20.10;53.10;;;;;;5044969;28;20504;-48
2023/01/04 04:49:17;;;;;;;3.40;0.60;;;20.10;53.10;;;;;;5045406;28;20041;-50
2023/01/04 04:51:45;;;;;;;0.60;0.10;;;20.10;53.10;;;;;;5045311;28;20098;-48
2023/01/04 04:54:17;;;;;;;1.75;0.10;;;20.10;53.10;;;;;;5045032;28;20094;-50
2023/01/04 04:56:45;;;;;;;0.13;0.00;;;20.10;53.70;;;;;;5042584;28;20064;-51
2023/01/04 04:59:12;;;;;;;2.22;0.00;;;20.10;53.30;;;;;;5044588;28;20137;-48
2023/01/04 05:01:39;;;;;;;1.38;0.10;;;20.00;53.10;;;;;;5044955;28;20049;-51
2023/01/04 05:04:07;;;;;;;0.32;0.03;;;20.00;53.20;;;;;;5045209;28;20714;-49
2023/01/04 05:06:34;;;;;;;3.50;0.20;;;20.10;53.30;;;;;;5045200;28;20413;-51
2023/01/04 05:09:01;;;;;;;7.25;0.10;;;20.10;53.30;;;;;;5044963;28;20047;-49
2023/01/04 05:14:14;;;;;;;0.90;0.10;;;20.10;53.40;;;;;;5044959;28;20048;-49
2023/01/04 05:16:41;;;;;;;1.95;0.50;;;20.10;53.50;;;;;;5045163;28;20044;-48
2023/01/04 05:19:08;;;;;;;0.10;0.10;;;20.10;53.50;;;;;;5043756;28;20064;-50
2023/01/04 05:21:35;;;;;;;0.57;0.22;;;20.10;53.50;;;;;;5044718;28;20045;-47
2023/01/04 05:24:02;;;;;;;0.10;0.00;;;20.10;53.50;;;;;;5044689;28;20040;-48
2023/01/04 05:26:29;;;;;;;0.90;0.20;;;20.10;53.50;;;;;;5048268;28;20072;-48
2023/01/04 05:28:56;;;;;;;0.08;0.08;;;20.10;53.50;;;;;;5049146;28;20041;-52
2023/01/04 05:31:24;;;;;;;0.20;0.20;;;20.10;53.60;;;;;;5047259;28;20033;-52
2023/01/04 05:33:51;;;;;;;1.55;0.00;;;20.10;53.60;;;;;;5048677;28;20463;-50
2023/01/04 05:36:18;;;;;;;2.85;0.22;;;20.10;53.60;;;;;;5048805;28;20045;-52
2023/01/04 05:38:45;;;;;;;0.10;0.08;;;20.10;53.60;;;;;;5048829;28;20041;-51
2023/01/04 05:43:53;;;;;;;0.20;0.00;;;20.10;53.60;;;;;;5048546;28;20603;-51
2023/01/04 05:46:20;;;;;;;1.20;0.00;;;20.10;53.70;;;;;;5048631;28;20045;-50
2023/01/04 05:48:49;;;;;;;3.30;0.00;;;20.10;53.70;;;;;;5048409;28;20120;-48
2023/01/04 05:51:16;;;;;;;0.20;0.00;;;20.10;53.70;;;;;;5048644;28;20047;-47
2023/01/04 05:53:43;;;;;;;0.15;0.00;;;20.20;53.70;;;;;;5047962;28;20041;-48
2023/01/04 05:56:10;;;;;;;0.00;0.00;;;20.10;53.70;;;;;;5048468;28;20413;-50
2023/01/04 05:58:37;;;;;;;0.85;0.00;;;20.10;53.70;;;;;;5048451;28;20045;-49
2023/01/04 06:01:06;;;;;;;0.03;0.03;;;20.20;53.80;;;;;;5048060;28;20056;-51
2023/01/04 06:03:33;;;;;;;0.85;0.10;;;20.10;53.80;;;;;;5048417;28;20057;-50
2023/01/04 06:06:01;;;;;;;0.08;0.00;;;20.20;53.80;;;;;;5048219;28;20131;-53
2023/01/04 06:08:28;;;;;;;0.52;0.00;;;20.10;53.80;;;;;;5047117;28;20077;-49
2023/01/04 06:10:55;;;;;;;0.95;0.00;;;20.10;53.80;;;;;;5047880;28;20122;-52
2023/01/04 06:13:22;;;;;;;0.32;0.00;;;20.10;53.80;;;;;;5048265;28;20160;-49
2023/01/04 06:15:50;;;;;;;0.20;0.00;;;20.10;53.80;;;;;;5048103;28;20045;-51
2023/01/04 06:18:17;;;;;;;0.20;0.00;;;20.20;53.90;;;;;;5063309;28;20053;-50
2023/01/04 06:20:44;;;;;;;0.45;0.10;;;20.10;53.80;;;;;;5048431;28;20044;-50
2023/01/04 06:23:12;;;;;;;0.52;0.00;;;20.10;53.80;;;;;;5047732;28;20130;-48
2023/01/04 06:25:39;;;;;;;0.08;0.00;;;20.20;53.80;;;;;;5047940;28;20061;-52
2023/01/04 06:28:07;;;;;;;0.00;0.00;;;20.20;53.80;;;;;;5048239;28;20073;-51
2023/01/04 06:30:34;;;;;;;0.57;0.00;;;20.20;53.80;;;;;;5048100;28;20072;-51
2023/01/04 06:33:03;;;;;;;0.00;0.00;;;20.20;53.80;;;;;;5047982;28;20767;-50
2023/01/04 06:35:30;;;;;;;0.00;0.00;;;20.20;53.80;;;;;;5047502;28;20493;-50
2023/01/04 06:37:57;;;;;;;0.03;0.03;;;20.20;53.80;;;;;;5047466;28;20124;-53
2023/01/04 06:40:25;;;;;;;0.10;0.00;;;20.20;53.80;;;;;;5048019;28;20531;-49
2023/01/04 06:42:52;;;;;;;1.08;0.00;;;20.20;53.70;;;;;;5047760;28;20095;-47
2023/01/04 06:45:19;;;;;;;0.57;0.08;;;20.20;54.30;;;;;;5047676;28;20148;-49
2023/01/04 06:47:46;;;;;;;0.00;0.00;;;20.20;53.80;;;;;;5047625;28;20102;-51
2023/01/04 06:50:13;;;;;;;0.40;0.00;;;20.20;53.80;;;;;;5047580;28;20045;-51
2023/01/04 06:52:41;;;;;;;0.00;0.00;;;20.20;53.90;;;;;;5045315;28;20049;-48
2023/01/04 06:55:09;;;;;;;0.10;0.00;;;20.20;53.90;;;;;;5027521;28;20056;-52
2023/01/04 06:57:38;;;;;;;0.00;0.00;;;20.20;53.90;;;;;;5027673;28;20041;-48
2023/01/04 07:00:07;;;;;;;0.20;0.00;;;20.20;53.90;;;;;;5034610;28;20448;-51
2023/01/04 07:02:35;;;;;;;0.10;0.10;;;20.20;53.90;;;;;;5046098;28;20152;-50
2023/01/04 07:05:02;;;;;;;0.00;0.00;;;20.20;54.00;;;;;;5046826;28;20043;-50
2023/01/04 07:07:29;;;;;;;0.40;0.10;;;20.20;53.90;;;;;;5046678;28;20386;-48
2023/01/04 07:09:56;;;;;;;0.68;0.00;;;20.20;53.90;;;;;;5047220;28;20041;-52
2023/01/04 07:12:23;;;;;;;0.40;0.10;;;20.20;53.90;;;;;;5047280;28;20090;-48
2023/01/04 07:14:52;;;;;;;0.10;0.00;;;20.20;53.90;;;;;;5047005;28;20045;-49
2023/01/04 07:17:19;;;;;;;0.32;0.00;;;20.20;53.90;;;;;;5046708;28;20077;-47
2023/01/04 07:19:46;;;;;;;0.17;0.00;;;20.20;53.90;;;;;;5047252;28;20140;-50
2023/01/04 07:22:13;;;;;;;0.47;0.00;;;20.20;53.90;;;;;;5046467;28;20037;-49
2023/01/04 07:24:40;;;;;;;0.00;0.00;;;20.20;53.90;;;;;;5046558;28;20424;-52
2023/01/04 07:27:07;;;;;;;0.55;0.00;;;20.20;54.00;;;;;;5046945;28;20115;-49
2023/01/04 07:29:34;;;;;;;0.70;0.10;;;20.20;54.00;;;;;;5046364;28;20037;-54
2023/01/04 07:32:03;;;;;;;0.00;0.00;;;20.20;54.10;;;;;;5046488;28;20112;-52
2023/01/04 07:34:30;;;;;;;1.33;0.00;;;20.30;54.10;;;;;;5046754;28;20160;-50
2023/01/04 07:36:57;;;;;;;0.10;0.00;;;20.20;54.10;;;;;;5046463;28;20111;-48
2023/01/04 07:39:24;;;;;;;1.27;0.00;;;20.30;54.20;;;;;;5046869;28;20045;-53
2023/01/04 07:41:51;;;;;;;0.00;0.00;;;20.20;54.10;;;;;;5047020;28;20195;-53
2023/01/04 07:44:21;;;;;;;0.68;0.40;;;20.30;54.20;;;;;;5046575;28;20041;-51
2023/01/04 07:46:48;;;;;;;0.32;0.10;;;20.20;54.10;;;;;;5037072;28;20049;-56
2023/01/04 07:49:18;;;;;;;2.28;0.00;;;20.30;54.30;;;;;;5044494;28;20033;-58
2023/01/04 07:51:45;;;;;;;3.15;0.00;;;20.30;54.40;;;;;;5045192;28;20445;-58
2023/01/04 07:54:13;;;;;;;1.67;0.00;;;20.30;54.50;;;;;;5045437;28;20132;-56
2023/01/04 07:56:40;;;;;;;9.23;0.00;;;20.30;54.50;;;;;;5045379;28;20143;-56
2023/01/04 07:59:08;;;;;;;6.93;1.75;;;20.30;54.60;;;;;;5045690;28;20041;-58
2023/01/04 08:01:37;;;;;;;0.10;0.00;;;20.30;54.60;;;;;;5045604;28;20052;-54
2023/01/04 08:04:04;;;;;;;4.32;0.60;;;20.30;54.60;;;;;;5045145;28;20052;-51
2023/01/04 08:06:33;;;;;;;11.48;0.15;;;20.30;55.40;;;;;;5045001;28;20527;-47
2023/01/04 08:09:01;;;;;;;5.60;0.10;;;20.40;56.10;;;;;;5045851;28;20044;-61
2023/01/04 08:11:28;;;;;;;7.82;0.45;;;20.40;56.90;;;;;;5042794;28;20051;-55
2023/01/04 08:13:55;;;;;;;7.45;0.13;;;20.50;57.60;;;;;;5043719;28;20479;-57
2023/01/04 08:16:26;;;;;;;7.00;0.50;;;20.60;58.30;;;;;;5045254;28;20047;-59
2023/01/04 08:18:54;;;;;;;8.85;0.10;;;20.60;59.20;;;;;;5045740;28;20521;-60
2023/01/04 08:21:21;;;;;;;5.93;0.30;;;20.70;60.00;;;;;;5044615;28;20044;-58
2023/01/04 08:23:50;;;;;;;7.70;1.48;;;20.80;60.30;;;;;;5045448;28;20036;-63
2023/01/04 08:26:18;;;;;;;5.70;0.10;;;21.00;60.50;;;;;;5045407;28;20521;-60
2023/01/04 08:28:45;;;;;;;0.63;0.20;;;21.10;60.50;;;;;;5045206;28;20048;-60
2023/01/04 08:31:14;;;;;;;3.22;1.17;;;21.30;60.50;;;;;;5045819;28;20060;-58
2023/01/04 08:33:42;;;;;;;3.80;0.15;;;21.40;60.10;;;;;;5045024;28;20152;-61
2023/01/04 08:36:12;;;;;;;1.85;0.40;;;21.50;59.30;;;;;;5045290;28;20037;-62
2023/01/04 08:38:39;;;;;;;3.85;0.10;;;21.60;58.80;;;;;;5040001;28;20051;-59
2023/01/04 08:41:08;;;;;;;4.38;0.20;;;21.70;58.60;;;;;;5045506;28;20036;-58
2023/01/04 08:43:35;;;;;;;1.45;0.10;;;21.70;58.40;;;;;;5043624;28;20574;-60
2023/01/04 08:46:03;;;;;;;1.77;0.10;;;21.80;58.30;;;;;;5044401;28;20041;-58
2023/01/04 08:48:30;;;;;;;2.75;0.10;;;21.80;58.30;;;;;;5031068;28;20111;-55
2023/01/04 08:50:59;;;;;;;2.95;0.20;;;21.80;58.30;;;;;;5044664;28;20531;-57
2023/01/04 08:53:26;;;;;;;3.13;0.20;;;21.90;58.10;;;;;;5044722;28;20044;-58
2023/01/04 08:55:54;;;;;;;0.10;0.00;;;21.90;58.20;;;;;;5044249;28;20041;-50
2023/01/04 08:58:24;;;;;;;0.52;0.28;;;21.90;58.10;;;;;;5044618;28;20052;-55
2023/01/04 09:00:52;;;;;;;0.82;0.10;;;21.90;58.00;;;;;;5059283;28;20037;-57
2023/01/04 09:03:19;;;;;;;1.90;0.20;;;21.90;57.80;;;;;;5044486;28;20121;-56
2023/01/04 09:05:46;;;;;;;3.17;0.17;;;21.90;57.70;;;;;;5044570;28;20505;-55
2023/01/04 09:08:13;;;;;;;2.50;1.13;;;21.90;57.60;;;;;;5044547;28;20068;-59
2023/01/04 09:10:40;;;;;;;0.75;0.10;;;22.00;57.70;;;;;;5044344;28;20421;-57
2023/01/04 09:13:07;;;;;;;2.03;0.05;;;22.00;57.50;;;;;;5044323;28;20065;-59
2023/01/04 09:15:36;;;;;;;3.47;0.20;;;22.00;57.40;;;;;;5044638;28;20040;-58
2023/01/04 09:18:04;;;;;;;0.70;0.10;;;22.00;57.30;;;;;;5043984;28;20045;-60
2023/01/04 09:20:31;;;;;;;0.80;0.10;;;22.00;57.20;;;;;;5044282;28;20512;-59
2023/01/04 09:22:58;;;;;;;0.80;0.10;;;22.00;57.10;;;;;;5044231;28;20087;-57
2023/01/04 09:25:25;;;;;;;0.13;0.10;;;22.00;57.00;;;;;;5044100;28;20041;-55
2023/01/04 09:27:52;;;;;;;0.52;0.10;;;22.10;57.00;;;;;;5044374;28;20048;-57
2023/01/04 09:30:19;;;;;;;0.28;0.05;;;22.10;56.90;;;;;;5044491;28;20244;-57
2023/01/04 09:32:48;;;;;;;0.90;0.00;;;22.10;56.80;;;;;;5044078;28;20041;-51
2023/01/04 09:35:15;;;;;;;1.48;0.10;;;22.10;56.60;;;;;;5044211;28;20090;-55
2023/01/04 09:37:42;;;;;;;1.77;0.10;;;22.10;56.60;;;;;;5044832;28;20045;-48
2023/01/04 09:40:20;;;;;;;0.60;0.10;;;22.10;56.60;;;;;;5048751;28;20104;-43
2023/01/04 09:42:48;;;;;;;3.10;0.00;;;22.10;56.40;;;;;;5035484;28;20055;-50
2023/01/04 09:45:20;;;;;;;4.32;0.10;;;22.10;56.40;;;;;;5051900;28;20033;-45
2023/01/04 09:47:53;;;;;;;1.77;0.00;;;22.10;56.20;;;;;;5051523;28;20057;-46
2023/01/04 09:50:24;;;;;;;2.85;0.17;;;22.10;56.10;;;;;;5051247;28;20041;-47
2023/01/04 09:53:00;;;;;;;0.10;0.00;;;22.10;56.10;;;;;;5048721;28;20140;-45
2023/01/04 09:55:31;;;;;;;0.05;0.00;;;22.10;55.90;;;;;;5052231;28;20052;-44
2023/01/04 09:58:03;;;;;;;0.70;0.10;;;22.00;55.90;;;;;;5052259;28;20045;-50
2023/01/04 10:00:35;;;;;;;0.73;0.40;;;22.00;55.90;;;;;;5052201;28;20052;-47
2023/01/04 10:03:11;;;;;;;4.80;0.10;;;22.00;55.90;;;;;;5050183;28;20049;-46
2023/01/04 10:05:40;;;;;;;0.30;0.17;;;22.00;56.50;;;;;;5051935;28;20104;-46
2023/01/04 10:08:15;;;;;;;1.17;0.47;;;22.00;56.00;;;;;;5051291;28;20048;-45
2023/01/04 10:10:52;;;;;;;0.90;0.10;;;22.00;56.00;;;;;;5052188;28;20569;-46
2023/01/04 10:13:38;;;;;;;4.50;0.00;;;22.00;56.10;;;;;;5054939;28;20041;-47
2023/01/04 10:16:15;;;;;;;2.05;0.00;;;22.00;56.20;;;;;;5055053;28;20084;-48
2023/01/04 10:18:53;;;;;;;1.30;0.45;;;22.00;56.20;;;;;;5041512;28;20049;-46
2023/01/04 10:21:33;;;;;;;0.45;0.00;;;22.00;56.20;;;;;;5055282;28;20040;-44
2023/01/04 10:24:18;;;;;;;3.00;0.00;;;21.90;56.10;;;;;;5055131;28;20357;-44
2023/01/04 10:26:48;;;;;;;1.65;0.00;;;21.90;56.10;;;;;;5055604;28;20040;-44
2023/01/04 10:29:44;;;;;;;1.48;0.00;;;21.90;56.00;;;;;;5055544;28;20044;-46
2023/01/04 10:32:19;;;;;;;2.60;0.03;;;21.90;55.90;;;;;;5055530;28;20048;-44
2023/01/04 10:34:48;;;;;;;1.35;0.10;;;21.90;56.00;;;;;;5038850;28;20072;-45
2023/01/04 10:37:19;;;;;;;0.75;0.00;;;21.90;55.90;;;;;;5055340;28;20055;-50
2023/01/04 10:39:50;;;;;;;1.25;0.00;;;21.80;55.80;;;;;;5054115;28;20436;-44
2023/01/04 10:42:21;;;;;;;0.75;0.00;;;21.90;55.80;;;;;;5049416;28;20519;-48
2023/01/04 10:45:07;;;;;;;0.55;0.10;;;21.80;55.70;;;;;;5027269;28;20041;-44
2023/01/04 10:47:37;;;;;;;;;;;21.90;55.60;;;;;;5045349;28;20051;-44
2023/01/04 10:50:14;;;;;;;3.80;0.10;;;21.80;55.60;;;;;;5047560;28;19920;-45
2023/01/04 10:52:44;;;;;;;0.52;0.05;;;21.80;56.00;;;;;;5046818;28;20079;-44
2023/01/04 10:55:17;;;;;;;1.50;0.10;;;21.80;55.20;;;;;;5047492;28;20053;-48
2023/01/04 10:57:51;;;;;;;0.10;0.00;;;21.80;55.00;;;;;;5047773;28;20774;-46
2023/01/04 11:00:23;;;;;;;1.85;0.00;;;21.80;54.80;;;;;;5047318;28;20616;-46
2023/01/04 11:02:56;;;;;;;0.73;0.03;;;21.80;54.80;;;;;;5047438;28;20627;-44
2023/01/04 11:05:29;;;;;;;0.28;0.10;;;21.80;54.60;;;;;;5047327;28;20082;-44
2023/01/04 11:08:03;;;;;;;3.78;0.00;;;21.80;54.50;;;;;;5047096;28;20098;-46
2023/01/04 11:10:36;;;;;;;0.00;0.00;;;21.80;54.40;;;;;;5047173;28;20072;-45
2023/01/04 11:13:03;;;;;;;2.40;0.00;;;21.80;54.40;;;;;;5047198;28;20049;-45
2023/01/04 11:15:30;;;;;;;0.20;0.00;;;21.80;54.30;;;;;;5046837;28;20072;-43
2023/01/04 11:18:00;;;;;;;0.63;0.00;;;21.80;54.30;;;;;;5047026;28;20497;-44
2023/01/04 11:20:30;;;;;;;0.68;0.10;;;21.80;54.20;;;;;;5047278;28;20460;-44
2023/01/04 11:23:02;;;;;;;0.30;0.10;;;21.80;54.30;;;;;;5045711;28;20572;-44
2023/01/04 11:25:35;;;;;;;0.10;0.00;;;21.80;54.30;;;;;;5046540;28;20057;-44
2023/01/04 11:28:09;;;;;;;0.05;0.00;;;21.80;54.30;;;;;;5046346;28;20159;-46
2023/01/04 11:30:56;;;;;;;0.10;0.00;;;21.80;54.80;;;;;;5047224;28;20447;-46
2023/01/04 11:33:24;;;;;;;0.20;0.10;;;21.80;54.20;;;;;;5046693;28;20098;-44
2023/01/04 11:35:55;;;;;;;0.57;0.22;;;21.70;54.20;;;;;;5046721;28;20099;-43
2023/01/04 11:38:23;;;;;;;1.45;0.05;;;21.70;54.20;;;;;;5046832;28;20048;-46
2023/01/04 11:40:59;;;;;;;0.55;0.03;;;21.70;54.30;;;;;;5046529;28;20124;-45
2023/01/04 11:43:28;;;;;;;0.65;0.10;;;21.70;54.30;;;;;;5045833;28;20049;-50
2023/01/04 11:46:01;;;;;;;0.10;0.10;;;21.70;54.30;;;;;;5046696;28;20067;-43
2023/01/04 11:48:40;;;;;;;0.60;0.50;;;21.70;54.40;;;;;;5046377;28;20053;-45
2023/01/04 11:51:18;;;;;;;0.30;0.00;;;21.70;54.40;;;;;;5046602;28;20095;-44
2023/01/04 11:53:56;;;;;;;0.55;0.10;;;21.70;54.60;;;;;;5046983;28;20459;-45
2023/01/04 11:56:24;;;;;;;0.40;0.05;;;21.70;54.50;;;;;;5046900;28;20095;-45
2023/01/04 11:59:13;;;;;;;0.55;0.25;;;21.60;54.50;;;;;;5046406;28;20047;-46
2023/01/04 12:01:43;;;;;;;0.40;0.00;;;21.70;54.40;;;;;;5046340;28;20045;-46
2023/01/04 12:04:13;;;;;;;0.13;0.08;;;21.60;54.50;;;;;;5046164;28;20375;-46
2023/01/04 12:06:48;;;;;;;1.02;0.00;;;21.60;54.50;;;;;;5046141;28;20041;-44
2023/01/04 12:09:17;;;;;;;0.17;0.00;;;21.60;54.70;;;;;;5046145;28;20111;-44
2023/01/04 12:11:49;;;;;;;0.32;0.25;;;21.60;54.60;;;;;;5046091;28;20044;-46
2023/01/04 12:14:23;;;;;;;1.45;0.00;;;21.70;54.70;;;;;;5046305;28;20059;-47
2023/01/04 12:16:55;;;;;;;0.30;0.10;;;21.70;54.70;;;;;;5045850;28;20414;-45
2023/01/04 12:19:23;;;;;;;0.63;0.08;;;21.70;54.70;;;;;;5045940;28;20053;-46
2023/01/04 12:21:56;;;;;;;0.05;0.00;;;21.60;54.60;;;;;;5046110;28;20527;-44
2023/01/04 12:24:26;;;;;;;0.00;0.00;;;21.60;54.70;;;;;;5045834;28;20049;-45
2023/01/04 12:26:53;;;;;;;1.20;0.00;;;21.60;54.70;;;;;;5045600;28;20615;-45
2023/01/04 12:29:44;;;;;;;0.45;0.00;;;21.60;54.70;;;;;;5046076;28;20929;-46
2023/01/04 12:32:45;;;;;;;0.10;0.10;;;21.60;54.70;;;;;;5045917;28;20110;-42
2023/01/04 12:36:05;;;;;;;0.00;0.00;;;21.60;54.80;;;;;;5045612;28;20604;-43
2023/01/04 12:39:09;;;;;;;1.15;0.00;;;21.60;55.10;;;;;;5045887;28;20072;-46
2023/01/04 12:42:14;;;;;;;0.00;0.00;;;21.60;55.10;;;;;;5045585;28;20079;-44
2023/01/04 12:45:15;;;;;;;0.85;0.00;;;21.60;55.20;;;;;;5061395;28;20931;-43
2023/01/04 12:50:30;;;;;;;0.52;0.20;;;21.50;55.40;;;;;;5045031;28;20052;-45
2023/01/04 12:53:03;;;;;;;0.00;0.00;;;21.50;55.50;;;;;;5045635;28;20706;-48
2023/01/04 12:55:58;;;;;;;0.90;0.00;;;21.50;55.50;;;;;;5044539;28;20044;-44
2023/01/04 12:59:05;;;;;;;0.10;0.10;;;21.50;55.50;;;;;;5045547;28;20045;-44
2023/01/04 13:01:33;;;;;;;;;;;21.50;55.60;;;;;;5046181;28;20049;-49
2023/01/04 13:04:23;;;;;;;0.00;0.00;;;21.40;55.60;;;;;;5045371;28;19964;-48
2023/01/04 13:06:51;;;;;;;0.00;0.00;;;21.40;55.80;;;;;;5060676;28;20052;-43
2023/01/04 13:09:21;;;;;;;0.80;0.10;;;21.40;55.80;;;;;;5044918;28;20045;-44
2023/01/04 13:12:06;;;;;;;0.22;0.00;;;21.40;55.90;;;;;;5045329;28;20052;-44
2023/01/04 13:14:39;;;;;;;1.90;0.80;;;21.50;55.90;;;;;;5045398;28;20142;-45
2023/01/04 13:17:18;;;;;;;0.00;0.00;;;21.50;55.90;;;;;;5045518;28;20436;-48
2023/01/04 13:19:47;;;;;;;0.30;0.00;;;21.50;55.90;;;;;;5045676;28;20045;-45
2023/01/04 13:22:21;;;;;;;0.00;0.00;;;21.40;55.80;;;;;;5045050;28;20080;-47
2023/01/04 13:24:50;;;;;;;0.00;0.00;;;21.50;55.90;;;;;;5044905;28;20049;-47
2023/01/04 13:27:19;;;;;;;0.00;0.00;;;21.40;56.40;;;;;;5045088;28;20501;-45
2023/01/04 13:29:47;;;;;;;0.43;0.10;;;21.40;55.80;;;;;;5045299;28;20084;-45
2023/01/04 13:32:21;;;;;;;0.90;0.00;;;21.40;55.80;;;;;;5045129;28;20127;-43
2023/01/04 13:34:54;;;;;;;0.55;0.00;;;21.40;55.80;;;;;;5045036;28;20049;-48
2023/01/04 13:37:30;;;;;;;0.10;0.00;;;21.40;55.80;;;;;;5043012;28;20063;-46
2023/01/04 13:40:15;;;;;;;0.10;0.00;;;21.50;55.90;;;;;;5024672;28;20057;-46
2023/01/04 13:42:46;;;;;;;0.00;0.00;;;21.40;55.90;;;;;;5025386;28;20073;-48
2023/01/04 13:45:33;;;;;;;0.22;0.00;;;21.40;55.90;;;;;;5025395;28;20465;-47
2023/01/04 13:48:04;;;;;;;0.00;0.00;;;21.40;55.90;;;;;;5039533;28;20410;-49
2023/01/04 13:50:35;;;;;;;0.00;0.00;;;21.40;56.00;;;;;;5048818;28;20041;-43
2023/01/04 13:53:04;;;;;;;0.20;0.00;;;21.40;56.00;;;;;;5048122;28;20071;-46
2023/01/04 13:55:33;;;;;;;0.00;0.00;;;21.40;56.10;;;;;;5047427;28;20247;-46
2023/01/04 13:58:02;;;;;;;0.90;0.20;;;21.40;56.00;;;;;;5048818;28;20049;-44